Terminal Aerodrome Forecast
Issued by NWS

Home | Current Version | Previous Version | Text Only | Print | Product List | Glossary On
Versions: 1 2 3 4 5 6 7 8 9 10 11 12 13 14 15 16 17 18 19 20 21 22 23 24 25 26 27 28 29
724
FTUS46 KEKA 312050 AAA
TAFCEC
TAF AMD
KCEC 312050Z 3121/0118 VRB06KT P6SM SCT008 OVC018
      TEMPO 3121/3123 BKN003
     FM010100 VRB04KT 3SM BR OVC005
     FM011200 VRB03KT 1SM BR OVC003=

USA.gov is the U.S. government's official web portal to all federal, state and local government web resources and services.